createdAt,value
2019-02-22T00:00:39.129Z,60.00
2019-02-22T00:01:52.443Z,60.10
2019-02-22T00:02:59.757Z,60.00
2019-02-22T00:04:07.166Z,60.00
2019-02-22T00:05:14.498Z,60.00
2019-02-22T00:06:21.842Z,60.00
2019-02-22T00:07:33.264Z,60.00
2019-02-22T00:08:40.594Z,60.00
2019-02-22T00:09:49.750Z,60.00
2019-02-22T00:10:56.925Z,60.00
2019-02-22T00:12:04.265Z,60.00
2019-02-22T00:13:11.582Z,60.20
2019-02-22T00:14:18.901Z,60.10
2019-02-22T00:15:26.242Z,60.70
2019-02-22T00:16:33.604Z,60.00
2019-02-22T00:17:40.941Z,60.10
2019-02-22T00:18:48.242Z,60.10
2019-02-22T00:19:55.585Z,60.20
2019-02-22T00:21:05.982Z,60.30
2019-02-22T00:22:13.304Z,60.40
2019-02-22T00:23:20.621Z,60.30
2019-02-22T00:24:27.967Z,60.50
2019-02-22T00:25:35.302Z,60.50
2019-02-22T00:26:42.628Z,60.40
2019-02-22T00:27:49.999Z,60.40
2019-02-22T00:28:57.318Z,61.30
2019-02-22T00:30:04.971Z,60.60
2019-02-22T00:31:12.410Z,60.70
2019-02-22T00:32:19.770Z,60.80
2019-02-22T00:33:27.150Z,60.70
2019-02-22T00:34:34.596Z,60.80
2019-02-22T00:35:42.006Z,60.90
2019-02-22T00:36:49.380Z,60.90
2019-02-22T00:37:56.758Z,60.90
2019-02-22T00:39:05.403Z,61.00
2019-02-22T00:40:13.879Z,61.10
2019-02-22T00:41:21.251Z,61.20
2019-02-22T00:42:28.585Z,61.10
2019-02-22T00:43:35.926Z,61.20
2019-02-22T00:44:43.266Z,62.30
2019-02-22T00:45:50.602Z,62.30
2019-02-22T00:46:57.919Z,62.50
2019-02-22T00:48:06.332Z,62.40
2019-02-22T00:49:13.659Z,62.40
2019-02-22T00:50:21.019Z,62.50
2019-02-22T00:51:31.346Z,62.50
2019-02-22T00:52:38.655Z,62.60
2019-02-22T00:53:45.982Z,62.70
2019-02-22T00:54:53.314Z,62.70
2019-02-22T00:56:00.638Z,62.70
2019-02-22T00:57:07.943Z,62.80
2019-02-22T00:58:15.298Z,62.80
2019-02-22T00:59:22.629Z,62.90
2019-02-22T01:00:29.967Z,62.90
2019-02-22T01:01:37.300Z,63.00
2019-02-22T01:02:47.941Z,63.10
2019-02-22T01:03:55.262Z,63.10
2019-02-22T01:05:02.576Z,63.10
2019-02-22T01:06:10.004Z,63.20
2019-02-22T01:07:17.322Z,63.20
2019-02-22T01:08:24.627Z,63.20
2019-02-22T01:09:31.946Z,63.30
2019-02-22T01:10:39.367Z,63.40
2019-02-22T01:11:46.671Z,63.40
2019-02-22T01:12:53.991Z,63.50
2019-02-22T01:14:01.294Z,63.50
2019-02-22T01:15:08.642Z,63.50
2019-02-22T01:16:15.988Z,63.60
2019-02-22T01:17:23.361Z,63.60
2019-02-22T01:18:30.691Z,63.60
2019-02-22T01:19:38.022Z,63.60
2019-02-22T01:20:54.026Z,63.60
2019-02-22T01:21:54.468Z,63.60
2019-02-22T01:23:01.786Z,63.60
2019-02-22T01:24:09.125Z,63.70
2019-02-22T01:25:16.613Z,63.80
2019-02-22T01:26:23.929Z,63.70
2019-02-22T01:27:31.256Z,63.80
2019-02-22T01:28:38.587Z,63.80
2019-02-22T01:29:45.901Z,63.80
2019-02-22T01:30:54.449Z,63.90
2019-02-22T01:32:01.825Z,63.90
2019-02-22T01:33:11.171Z,62.70
2019-02-22T01:34:18.505Z,62.80
2019-02-22T01:35:25.854Z,62.80
2019-02-22T01:36:33.163Z,62.80
2019-02-22T01:37:40.542Z,62.90
2019-02-22T01:38:47.862Z,62.80
2019-02-22T01:39:55.209Z,62.80
2019-02-22T01:41:02.531Z,62.80
2019-02-22T01:42:09.861Z,62.80
2019-02-22T01:43:17.199Z,62.70
2019-02-22T01:44:24.712Z,62.70
2019-02-22T01:45:32.040Z,62.70
2019-02-22T01:46:40.458Z,62.80
2019-02-22T01:47:47.763Z,62.70
2019-02-22T01:48:55.143Z,62.80
2019-02-22T01:50:02.456Z,62.70
2019-02-22T01:51:10.884Z,62.80
2019-02-22T01:52:18.206Z,62.00
2019-02-22T01:53:25.527Z,62.70
2019-02-22T01:54:32.875Z,62.70
2019-02-22T01:55:40.221Z,62.70
2019-02-22T01:56:47.561Z,62.70
2019-02-22T01:57:58.497Z,62.70
2019-02-22T01:59:05.828Z,62.70
2019-02-22T02:00:13.694Z,62.70
2019-02-22T02:01:21.314Z,62.70
2019-02-22T02:02:28.670Z,62.70
2019-02-22T02:03:37.849Z,62.80
2019-02-22T02:04:45.211Z,62.70
2019-02-22T02:05:53.628Z,62.70
2019-02-22T02:07:00.988Z,62.70
2019-02-22T02:08:08.323Z,62.80
2019-02-22T02:09:15.643Z,62.70
2019-02-22T02:10:23.090Z,62.80
2019-02-22T02:11:30.409Z,62.70
2019-02-22T02:12:37.741Z,62.70
2019-02-22T02:13:45.085Z,62.80
2019-02-22T02:14:52.415Z,62.80
2019-02-22T02:15:59.792Z,62.80
2019-02-22T02:17:07.121Z,62.70
2019-02-22T02:18:14.542Z,62.70
2019-02-22T02:19:22.847Z,62.70
2019-02-22T02:20:30.789Z,63.10
2019-02-22T02:21:39.166Z,62.70
2019-02-22T02:22:46.488Z,62.70
2019-02-22T02:23:53.791Z,62.70
2019-02-22T02:25:01.154Z,62.80
2019-02-22T02:26:08.538Z,62.80
2019-02-22T02:27:15.858Z,62.80
2019-02-22T02:28:23.212Z,62.80
2019-02-22T02:29:30.549Z,62.80
2019-02-22T02:30:37.880Z,62.80
2019-02-22T02:31:45.196Z,62.50
2019-02-22T02:32:52.526Z,62.90
2019-02-22T02:33:59.884Z,62.80
2019-02-22T02:35:07.861Z,62.90
2019-02-22T02:36:15.225Z,63.00
2019-02-22T02:37:22.536Z,62.90
2019-02-22T02:38:29.893Z,63.00
2019-02-22T02:39:37.211Z,63.00
2019-02-22T02:40:44.528Z,62.90
2019-02-22T02:41:51.829Z,63.00
2019-02-22T02:42:59.186Z,63.00
2019-02-22T02:44:06.551Z,63.00
2019-02-22T02:45:13.879Z,63.00
2019-02-22T02:46:21.197Z,63.10
2019-02-22T02:47:28.586Z,63.20
2019-02-22T02:48:35.932Z,63.30
2019-02-22T02:49:43.277Z,63.40
2019-02-22T02:50:50.606Z,63.60
2019-02-22T02:51:57.968Z,63.70
2019-02-22T02:53:05.677Z,63.90
2019-02-22T02:54:13.038Z,64.10
2019-02-22T02:55:32.356Z,64.30
2019-02-22T02:56:39.690Z,64.60
2019-02-22T02:57:48.556Z,64.70
2019-02-22T02:58:55.860Z,64.80
2019-02-22T03:00:03.213Z,64.90
2019-02-22T03:01:10.806Z,64.90
2019-02-22T03:02:24.506Z,65.10
2019-02-22T03:03:31.844Z,65.20
2019-02-22T03:04:39.183Z,65.20
2019-02-22T03:06:10.087Z,65.50
2019-02-22T03:07:34.923Z,65.60
2019-02-22T03:08:42.256Z,65.60
2019-02-22T03:09:49.642Z,65.50
2019-02-22T03:10:56.934Z,65.60
2019-02-22T03:12:04.269Z,65.90
2019-02-22T03:13:14.638Z,66.10
2019-02-22T03:14:21.987Z,66.30
2019-02-22T03:15:29.331Z,66.30
2019-02-22T03:16:36.645Z,66.30
2019-02-22T03:17:44.004Z,66.40
2019-02-22T03:18:52.305Z,66.60
2019-02-22T03:19:59.953Z,66.70
2019-02-22T03:21:07.280Z,66.70
2019-02-22T03:22:14.588Z,66.80
2019-02-22T03:23:21.921Z,67.00
2019-02-22T03:24:29.269Z,67.20
2019-02-22T03:25:36.620Z,67.20
2019-02-22T03:26:43.958Z,68.40
2019-02-22T03:27:51.273Z,68.30
2019-02-22T03:28:58.595Z,68.30
2019-02-22T03:30:06.466Z,68.40
2019-02-22T03:31:13.805Z,68.70
2019-02-22T03:32:21.104Z,68.80
2019-02-22T03:33:28.440Z,68.70
2019-02-22T03:34:35.766Z,68.80
2019-02-22T03:35:43.112Z,68.90
2019-02-22T03:36:50.444Z,68.90
2019-02-22T03:37:57.809Z,68.90
2019-02-22T03:39:07.081Z,68.90
2019-02-22T03:40:15.056Z,68.70
2019-02-22T03:41:32.447Z,68.80
2019-02-22T03:42:31.371Z,69.00
2019-02-22T03:43:38.717Z,69.00
2019-02-22T03:44:46.030Z,69.00
2019-02-22T03:45:53.349Z,68.90
2019-02-22T03:47:00.680Z,69.00
2019-02-22T03:48:08.036Z,69.00
2019-02-22T03:49:15.331Z,69.10
2019-02-22T03:50:24.694Z,69.10
2019-02-22T03:51:32.018Z,69.20
2019-02-22T03:52:46.510Z,69.20
2019-02-22T03:53:59.147Z,69.10
2019-02-22T03:55:07.250Z,69.20
2019-02-22T03:56:14.671Z,69.10
2019-02-22T03:57:22.001Z,69.10
2019-02-22T03:58:29.333Z,69.10
2019-02-22T03:59:37.749Z,69.30
2019-02-22T04:00:45.074Z,69.20
2019-02-22T04:01:52.746Z,69.20
2019-02-22T04:03:00.096Z,69.10
2019-02-22T04:04:07.402Z,69.10
2019-02-22T04:05:14.740Z,69.10
2019-02-22T04:06:22.056Z,69.10
2019-02-22T04:07:29.388Z,69.10
2019-02-22T04:08:36.716Z,69.10
2019-02-22T04:09:45.132Z,69.10
2019-02-22T04:10:52.410Z,69.10
2019-02-22T04:11:59.746Z,69.10
2019-02-22T04:13:07.117Z,68.80
2019-02-22T04:14:14.497Z,69.00
2019-02-22T04:15:21.883Z,69.00
2019-02-22T04:16:29.189Z,68.80
2019-02-22T04:17:37.528Z,69.00
2019-02-22T04:18:44.823Z,69.00
2019-02-22T04:19:52.153Z,68.90
2019-02-22T04:20:59.540Z,69.00
2019-02-22T04:22:06.902Z,69.00
2019-02-22T04:23:14.220Z,69.00
2019-02-22T04:24:21.553Z,69.10
2019-02-22T04:25:28.902Z,69.00
2019-02-22T04:26:36.196Z,69.10
2019-02-22T04:27:44.576Z,69.00
2019-02-22T04:28:54.155Z,69.00
2019-02-22T04:30:01.489Z,69.10
2019-02-22T04:31:09.980Z,69.00
2019-02-22T04:32:17.313Z,69.10
2019-02-22T04:33:24.634Z,69.10
2019-02-22T04:34:31.954Z,69.10
2019-02-22T04:35:39.347Z,69.10
2019-02-22T04:36:46.689Z,69.90
2019-02-22T04:37:54.033Z,69.10
2019-02-22T04:39:01.350Z,69.10
2019-02-22T04:40:10.286Z,69.10
2019-02-22T04:41:17.663Z,69.10
2019-02-22T04:42:24.991Z,69.20
2019-02-22T04:43:32.307Z,69.30
2019-02-22T04:44:39.668Z,69.20
2019-02-22T04:45:46.965Z,69.10
2019-02-22T04:46:54.297Z,69.20
2019-02-22T04:48:01.628Z,69.10
2019-02-22T04:49:08.986Z,69.20
2019-02-22T04:50:16.302Z,69.20
2019-02-22T04:51:23.637Z,69.20
2019-02-22T04:52:30.951Z,69.30
2019-02-22T04:53:38.290Z,69.30
2019-02-22T04:54:45.613Z,69.30
2019-02-22T04:55:52.985Z,69.30
2019-02-22T04:57:00.300Z,69.30
2019-02-22T04:58:07.620Z,69.30
2019-02-22T04:59:14.964Z,70.00
2019-02-22T05:00:22.277Z,69.30
2019-02-22T05:01:29.595Z,69.40
2019-02-22T05:02:36.912Z,69.40
2019-02-22T05:03:44.257Z,69.40
2019-02-22T05:04:51.602Z,69.40
2019-02-22T05:05:58.921Z,69.40
2019-02-22T05:07:06.252Z,69.40
2019-02-22T05:08:13.560Z,69.50
2019-02-22T05:09:20.869Z,69.40
2019-02-22T05:10:28.178Z,70.20
2019-02-22T05:11:35.496Z,69.50
2019-02-22T05:12:42.854Z,69.40
2019-02-22T05:13:50.187Z,70.20
2019-02-22T05:14:57.515Z,69.70
2019-02-22T05:16:04.834Z,69.50
2019-02-22T05:17:12.168Z,69.60
2019-02-22T05:18:19.497Z,69.70
2019-02-22T05:19:26.889Z,69.70
2019-02-22T05:20:34.153Z,69.70
2019-02-22T05:21:41.510Z,69.70
2019-02-22T05:22:48.830Z,69.70
2019-02-22T05:23:56.161Z,69.60
2019-02-22T05:25:03.491Z,69.70
2019-02-22T05:26:10.884Z,69.50
2019-02-22T05:27:18.197Z,69.70
2019-02-22T05:28:28.532Z,69.50
2019-02-22T05:29:35.865Z,69.60
2019-02-22T05:30:43.334Z,69.50
2019-02-22T05:31:50.660Z,69.60
2019-02-22T05:32:57.999Z,69.60
2019-02-22T05:34:05.296Z,69.60
2019-02-22T05:35:12.624Z,69.60
2019-02-22T05:36:19.974Z,69.60
2019-02-22T05:37:27.326Z,69.60
2019-02-22T05:38:34.633Z,69.70
2019-02-22T05:39:41.963Z,69.80
2019-02-22T05:40:49.267Z,69.70
2019-02-22T05:41:56.595Z,69.80
2019-02-22T05:43:03.940Z,69.80
2019-02-22T05:44:11.274Z,69.70
2019-02-22T05:45:18.590Z,69.70
2019-02-22T05:46:25.905Z,69.70
2019-02-22T05:47:33.218Z,69.80
2019-02-22T05:48:40.622Z,69.80
2019-02-22T05:49:47.971Z,69.80
2019-02-22T05:50:55.301Z,69.90
2019-02-22T05:52:02.626Z,69.80
2019-02-22T05:53:09.950Z,69.80
2019-02-22T05:54:17.280Z,69.70
2019-02-22T05:55:24.625Z,69.60
2019-02-22T05:56:31.913Z,69.70
2019-02-22T05:57:39.245Z,69.80
2019-02-22T05:58:46.592Z,69.80
2019-02-22T05:59:53.935Z,70.50
2019-02-22T06:01:01.275Z,69.80
2019-02-22T06:02:08.635Z,69.80
2019-02-22T06:03:17.034Z,69.80
2019-02-22T06:04:24.361Z,69.90
2019-02-22T06:05:31.688Z,69.70
2019-02-22T06:06:39.003Z,69.80
2019-02-22T06:07:46.328Z,69.80
2019-02-22T06:08:53.672Z,69.80
2019-02-22T06:10:00.992Z,69.80
2019-02-22T06:11:08.384Z,69.70
2019-02-22T06:12:18.409Z,69.70
2019-02-22T06:13:24.771Z,69.80
2019-02-22T06:14:32.133Z,69.60
2019-02-22T06:15:39.448Z,69.70
2019-02-22T06:16:46.787Z,69.80
2019-02-22T06:17:54.124Z,69.70
2019-02-22T06:19:01.469Z,69.80
2019-02-22T06:20:09.346Z,69.80
2019-02-22T06:21:16.700Z,69.90
2019-02-22T06:22:29.459Z,69.80
2019-02-22T06:23:33.062Z,69.90
2019-02-22T06:24:40.393Z,69.80
2019-02-22T06:25:47.715Z,69.90
2019-02-22T06:26:55.039Z,69.90
2019-02-22T06:28:02.357Z,69.80
2019-02-22T06:29:09.670Z,69.90
2019-02-22T06:30:17.003Z,70.00
2019-02-22T06:31:24.320Z,70.00
2019-02-22T06:32:31.631Z,69.90
2019-02-22T06:33:38.966Z,69.90
2019-02-22T06:34:46.309Z,70.00
2019-02-22T06:35:53.637Z,70.00
2019-02-22T06:37:02.268Z,70.00
2019-02-22T06:38:09.848Z,70.10
2019-02-22T06:39:17.171Z,70.00
2019-02-22T06:40:24.524Z,70.10
2019-02-22T06:41:31.836Z,70.10
2019-02-22T06:42:45.873Z,70.90
2019-02-22T06:43:48.181Z,70.10
2019-02-22T06:44:55.535Z,70.10
2019-02-22T06:46:02.858Z,70.10
2019-02-22T06:47:10.187Z,70.30
2019-02-22T06:48:17.527Z,70.00
2019-02-22T06:49:24.896Z,70.20
2019-02-22T06:50:33.972Z,70.30
2019-02-22T06:51:41.299Z,70.30
2019-02-22T06:52:48.625Z,70.30
2019-02-22T06:53:59.261Z,70.30
2019-02-22T06:55:06.934Z,70.40
2019-02-22T06:56:14.264Z,70.40
2019-02-22T06:57:21.593Z,70.50
2019-02-22T06:58:28.930Z,70.50
2019-02-22T06:59:36.347Z,70.50
2019-02-22T07:00:43.746Z,70.50
2019-02-22T07:01:51.082Z,71.30
2019-02-22T07:02:58.415Z,71.40
2019-02-22T07:04:05.746Z,70.50
2019-02-22T07:05:13.091Z,70.60
2019-02-22T07:06:20.435Z,70.60
2019-02-22T07:07:27.742Z,70.60
2019-02-22T07:08:35.040Z,70.60
2019-02-22T07:09:42.357Z,70.60
2019-02-22T07:11:07.392Z,70.60
2019-02-22T07:12:18.897Z,70.60
2019-02-22T07:13:26.207Z,70.40
2019-02-22T07:14:33.564Z,70.40
2019-02-22T07:15:40.916Z,70.50
2019-02-22T07:16:48.261Z,70.50
2019-02-22T07:17:55.581Z,70.60
2019-02-22T07:19:02.890Z,70.60
2019-02-22T07:20:11.695Z,70.70
2019-02-22T07:21:19.034Z,70.70
2019-02-22T07:22:26.356Z,71.30
2019-02-22T07:23:33.698Z,70.60
2019-02-22T07:24:41.155Z,70.60
2019-02-22T07:25:48.495Z,70.60
2019-02-22T07:26:55.851Z,70.70
2019-02-22T07:28:03.203Z,70.60
2019-02-22T07:29:10.528Z,70.60
2019-02-22T07:30:17.852Z,70.70
2019-02-22T07:31:25.243Z,70.60
2019-02-22T07:32:33.094Z,70.50
2019-02-22T07:33:40.874Z,70.50
2019-02-22T07:34:48.191Z,70.50
2019-02-22T07:35:55.532Z,70.50
2019-02-22T07:37:04.989Z,70.40
2019-02-22T07:38:12.357Z,70.60
2019-02-22T07:39:27.356Z,70.20
2019-02-22T07:40:28.720Z,70.50
2019-02-22T07:41:36.073Z,70.50
2019-02-22T07:42:43.470Z,70.50
2019-02-22T07:43:50.838Z,70.50
2019-02-22T07:44:58.147Z,70.50
2019-02-22T07:46:05.477Z,70.50
2019-02-22T07:47:13.315Z,70.40
2019-02-22T07:48:20.646Z,70.30
2019-02-22T07:49:28.947Z,70.40
2019-02-22T07:50:36.279Z,70.40
2019-02-22T07:51:43.610Z,70.30
2019-02-22T07:52:51.017Z,69.20
2019-02-22T07:53:58.399Z,69.20
2019-02-22T07:55:05.917Z,69.30
2019-02-22T07:56:13.311Z,69.10
2019-02-22T07:57:20.633Z,69.20
2019-02-22T07:58:27.957Z,69.10
2019-02-22T07:59:35.314Z,69.10
2019-02-22T08:00:42.648Z,69.10
2019-02-22T08:01:49.953Z,69.10
2019-02-22T08:02:57.269Z,69.00
2019-02-22T08:04:04.623Z,69.00
2019-02-22T08:05:11.962Z,68.90
2019-02-22T08:06:19.278Z,68.90
2019-02-22T08:07:26.618Z,69.10
2019-02-22T08:08:35.213Z,69.00
2019-02-22T08:09:45.722Z,69.00
2019-02-22T08:10:53.051Z,69.10
2019-02-22T08:12:00.399Z,68.90
2019-02-22T08:13:19.109Z,68.80
2019-02-22T08:14:18.034Z,68.90
2019-02-22T08:15:25.396Z,68.90
2019-02-22T08:16:32.885Z,68.60
2019-02-22T08:17:40.248Z,68.50
2019-02-22T08:19:01.573Z,68.50
2019-02-22T08:20:04.765Z,68.50
2019-02-22T08:21:12.071Z,68.40
2019-02-22T08:22:20.725Z,68.20
2019-02-22T08:23:28.201Z,68.10
2019-02-22T08:24:35.542Z,68.10
2019-02-22T08:25:42.877Z,68.20
2019-02-22T08:26:50.229Z,68.10
2019-02-22T08:27:57.566Z,68.10
2019-02-22T08:29:04.956Z,68.10
2019-02-22T08:30:13.680Z,68.10
2019-02-22T08:31:21.043Z,68.00
2019-02-22T08:32:28.375Z,68.00
2019-02-22T08:33:35.729Z,67.90
2019-02-22T08:34:45.758Z,68.00
2019-02-22T08:35:52.327Z,68.00
2019-02-22T08:36:59.688Z,68.00
2019-02-22T08:38:07.009Z,67.90
2019-02-22T08:39:14.352Z,67.70
2019-02-22T08:40:21.671Z,67.70
2019-02-22T08:41:29.031Z,67.70
2019-02-22T08:42:36.375Z,67.70
2019-02-22T08:43:43.717Z,67.60
2019-02-22T08:44:51.035Z,67.60
2019-02-22T08:45:58.342Z,67.70
2019-02-22T08:47:05.701Z,67.60
2019-02-22T08:48:13.034Z,67.60
2019-02-22T08:49:20.378Z,67.70
2019-02-22T08:50:27.695Z,67.70
2019-02-22T08:51:35.051Z,67.30
2019-02-22T08:52:42.355Z,67.20
2019-02-22T08:53:49.802Z,67.20
2019-02-22T08:54:57.197Z,67.20
2019-02-22T08:56:04.527Z,67.20
2019-02-22T08:57:11.945Z,67.10
2019-02-22T08:58:20.346Z,67.20
2019-02-22T08:59:27.899Z,67.10
2019-02-22T09:00:35.514Z,67.00
2019-02-22T09:01:43.038Z,67.00
2019-02-22T09:02:51.851Z,67.00
2019-02-22T09:03:59.235Z,66.80
2019-02-22T09:05:06.970Z,66.60
2019-02-22T09:06:14.882Z,66.40
2019-02-22T09:07:22.315Z,66.20
2019-02-22T09:08:29.646Z,66.20
2019-02-22T09:09:36.991Z,66.20
2019-02-22T09:10:44.364Z,66.00
2019-02-22T09:11:51.748Z,66.50
2019-02-22T09:12:59.048Z,65.70
2019-02-22T09:14:06.364Z,65.70
2019-02-22T09:15:13.680Z,65.70
2019-02-22T09:16:21.000Z,65.50
2019-02-22T09:17:28.317Z,65.40
2019-02-22T09:18:38.875Z,65.30
2019-02-22T09:19:46.210Z,65.30
2019-02-22T09:20:53.535Z,65.10
2019-02-22T09:22:00.847Z,65.00
2019-02-22T09:23:08.221Z,64.90
2019-02-22T09:24:15.525Z,64.80
2019-02-22T09:25:22.853Z,64.90
2019-02-22T09:26:30.206Z,64.70
2019-02-22T09:27:37.520Z,64.70
2019-02-22T09:28:44.895Z,64.60
2019-02-22T09:29:58.939Z,64.40
2019-02-22T09:31:01.262Z,64.30
2019-02-22T09:32:08.596Z,64.20
2019-02-22T09:33:15.920Z,64.10
2019-02-22T09:34:23.259Z,64.00
2019-02-22T09:35:30.574Z,63.90
2019-02-22T09:36:37.918Z,63.90
2019-02-22T09:37:45.251Z,63.70
2019-02-22T09:38:52.583Z,63.80
2019-02-22T09:39:59.980Z,63.90
2019-02-22T09:41:07.325Z,63.90
2019-02-22T09:42:14.628Z,63.80
2019-02-22T09:43:21.949Z,63.90
2019-02-22T09:44:29.280Z,63.90
2019-02-22T09:45:36.628Z,63.90
2019-02-22T09:46:43.955Z,63.90
2019-02-22T09:47:51.291Z,64.00
2019-02-22T09:48:58.576Z,63.90
2019-02-22T09:50:07.626Z,63.80
2019-02-22T09:51:14.946Z,63.60
2019-02-22T09:52:23.342Z,63.30
2019-02-22T09:53:30.653Z,63.00
2019-02-22T09:54:37.989Z,62.80
2019-02-22T09:55:45.290Z,62.80
2019-02-22T09:56:52.606Z,62.70
2019-02-22T09:57:59.950Z,62.70
2019-02-22T09:59:07.310Z,62.80
2019-02-22T10:00:14.925Z,62.80
2019-02-22T10:01:22.323Z,62.50
2019-02-22T10:02:29.648Z,63.30
2019-02-22T10:03:37.000Z,62.30
2019-02-22T10:04:54.459Z,62.50
2019-02-22T10:05:53.334Z,62.30
2019-02-22T10:07:00.635Z,62.30
2019-02-22T10:08:11.267Z,62.30
2019-02-22T10:09:18.611Z,62.10
2019-02-22T10:10:25.914Z,62.20
2019-02-22T10:11:33.246Z,62.90
2019-02-22T10:12:40.654Z,62.20
2019-02-22T10:13:48.168Z,62.20
2019-02-22T10:14:55.522Z,61.90
2019-02-22T10:16:02.845Z,61.90
2019-02-22T10:17:10.168Z,61.60
2019-02-22T10:18:17.488Z,61.40
2019-02-22T10:19:24.846Z,61.40
2019-02-22T10:20:32.151Z,61.40
2019-02-22T10:21:39.491Z,61.40
2019-02-22T10:22:46.802Z,61.20
2019-02-22T10:23:54.123Z,61.20
2019-02-22T10:25:01.439Z,61.30
2019-02-22T10:26:09.160Z,61.00
2019-02-22T10:27:16.539Z,60.90
2019-02-22T10:28:23.858Z,60.70
2019-02-22T10:29:31.207Z,60.70
2019-02-22T10:30:38.519Z,60.50
2019-02-22T10:31:46.204Z,60.20
2019-02-22T10:32:53.529Z,60.30
2019-02-22T10:34:01.812Z,60.30
2019-02-22T10:35:09.265Z,60.30
2019-02-22T10:36:16.584Z,60.20
2019-02-22T10:37:23.910Z,60.10
2019-02-22T10:38:35.552Z,59.90
2019-02-22T10:39:41.206Z,59.70
2019-02-22T10:40:48.542Z,59.60
2019-02-22T10:41:55.881Z,59.30
2019-02-22T10:43:03.217Z,59.30
2019-02-22T10:44:17.855Z,59.20
2019-02-22T10:45:19.576Z,59.30
2019-02-22T10:46:26.905Z,59.30
2019-02-22T10:47:34.243Z,59.30
2019-02-22T10:48:41.642Z,59.40
2019-02-22T10:49:49.242Z,59.40
2019-02-22T10:50:59.278Z,59.20
2019-02-22T10:52:05.964Z,59.00
2019-02-22T10:53:13.290Z,59.10
2019-02-22T10:54:21.703Z,59.20
2019-02-22T10:55:29.104Z,59.20
2019-02-22T10:56:39.060Z,59.10
2019-02-22T10:57:45.439Z,58.90
2019-02-22T10:58:52.801Z,58.70
2019-02-22T11:00:00.427Z,58.70
2019-02-22T11:01:08.210Z,59.00
2019-02-22T11:02:15.494Z,59.40
2019-02-22T11:03:22.850Z,60.00
2019-02-22T11:04:30.173Z,59.40
2019-02-22T11:05:37.503Z,59.10
2019-02-22T11:06:44.880Z,59.10
2019-02-22T11:07:52.214Z,59.00
2019-02-22T11:08:59.528Z,59.00
2019-02-22T11:10:08.930Z,58.80
2019-02-22T11:11:17.644Z,58.60
2019-02-22T11:12:25.288Z,58.50
2019-02-22T11:13:32.620Z,58.20
2019-02-22T11:14:39.919Z,58.00
2019-02-22T11:15:47.324Z,58.10
2019-02-22T11:16:54.658Z,58.00
2019-02-22T11:18:02.033Z,58.00
2019-02-22T11:19:09.634Z,58.30
2019-02-22T11:20:16.947Z,58.60
2019-02-22T11:21:24.291Z,58.40
2019-02-22T11:22:31.623Z,58.60
2019-02-22T11:23:38.981Z,58.60
2019-02-22T11:24:46.294Z,58.50
2019-02-22T11:25:57.351Z,58.40
2019-02-22T11:27:04.653Z,58.20
2019-02-22T11:28:12.015Z,58.10
2019-02-22T11:29:19.327Z,58.30
2019-02-22T11:30:26.654Z,58.50
2019-02-22T11:31:33.979Z,58.60
2019-02-22T11:32:41.324Z,58.70
2019-02-22T11:33:48.697Z,58.50
2019-02-22T11:34:56.331Z,58.20
2019-02-22T11:36:03.694Z,58.10
2019-02-22T11:37:10.994Z,58.00
2019-02-22T11:38:19.491Z,58.10
2019-02-22T11:39:26.839Z,58.00
2019-02-22T11:40:34.157Z,57.70
2019-02-22T11:41:41.457Z,57.60
2019-02-22T11:42:48.786Z,57.40
2019-02-22T11:43:56.129Z,57.40
2019-02-22T11:45:03.464Z,57.40
2019-02-22T11:46:10.949Z,57.50
2019-02-22T11:47:18.278Z,57.70
2019-02-22T11:48:25.665Z,57.80
2019-02-22T11:49:32.997Z,58.00
2019-02-22T11:50:40.509Z,58.10
2019-02-22T11:51:48.071Z,58.10
2019-02-22T11:52:55.396Z,58.00
2019-02-22T11:54:02.749Z,57.90
2019-02-22T11:55:11.723Z,57.80
2019-02-22T11:56:19.070Z,57.70
2019-02-22T11:57:26.384Z,57.70
2019-02-22T11:58:34.165Z,57.60
2019-02-22T11:59:41.510Z,57.90
2019-02-22T12:00:48.829Z,58.20
2019-02-22T12:01:56.160Z,58.30
2019-02-22T12:03:15.866Z,58.20
2019-02-22T12:04:12.547Z,58.10
2019-02-22T12:05:19.878Z,58.00
2019-02-22T12:06:27.329Z,58.00
2019-02-22T12:07:34.698Z,57.80
2019-02-22T12:08:42.120Z,57.70
2019-02-22T12:09:51.710Z,57.50
2019-02-22T12:10:59.230Z,57.60
2019-02-22T12:12:06.629Z,57.90
2019-02-22T12:13:14.004Z,57.80
2019-02-22T12:14:21.518Z,57.60
2019-02-22T12:15:33.316Z,57.60
2019-02-22T12:16:40.718Z,57.60
2019-02-22T12:17:48.161Z,57.60
2019-02-22T12:18:55.607Z,57.60
2019-02-22T12:20:03.019Z,57.60
2019-02-22T12:21:10.384Z,58.20
2019-02-22T12:22:17.758Z,57.60
2019-02-22T12:23:25.126Z,57.60
2019-02-22T12:24:32.557Z,57.30
2019-02-22T12:25:39.933Z,57.40
2019-02-22T12:26:47.311Z,57.40
2019-02-22T12:27:54.671Z,57.20
2019-02-22T12:29:02.036Z,57.10
2019-02-22T12:30:12.418Z,56.90
2019-02-22T12:31:19.817Z,57.00
2019-02-22T12:32:27.163Z,57.10
2019-02-22T12:33:34.509Z,57.10
2019-02-22T12:34:41.858Z,57.20
2019-02-22T12:35:49.238Z,57.20
2019-02-22T12:36:56.583Z,57.20
2019-02-22T12:38:03.988Z,57.00
2019-02-22T12:39:11.711Z,57.00
2019-02-22T12:40:19.922Z,57.20
2019-02-22T12:41:27.454Z,57.00
2019-02-22T12:42:36.572Z,57.00
2019-02-22T12:43:45.773Z,57.10
2019-02-22T12:45:02.501Z,56.90
2019-02-22T12:46:02.334Z,56.70
2019-02-22T12:47:09.703Z,56.60
2019-02-22T12:48:17.029Z,56.60
2019-02-22T12:49:24.386Z,56.70
2019-02-22T12:50:31.834Z,56.50
2019-02-22T12:51:42.518Z,56.50
2019-02-22T12:52:49.904Z,56.50
2019-02-22T12:53:57.264Z,56.50
2019-02-22T12:55:04.897Z,56.40
2019-02-22T12:56:12.292Z,56.40
2019-02-22T12:57:19.662Z,56.40
2019-02-22T12:58:27.051Z,56.70
2019-02-22T12:59:34.394Z,56.50
2019-02-22T13:00:41.751Z,56.50
2019-02-22T13:01:49.105Z,56.60
2019-02-22T13:03:02.093Z,56.80
2019-02-22T13:04:05.705Z,56.80
2019-02-22T13:05:17.514Z,56.40
2019-02-22T13:06:24.867Z,56.30
2019-02-22T13:07:36.700Z,56.20
2019-02-22T13:08:44.086Z,56.10
2019-02-22T13:09:51.472Z,55.90
2019-02-22T13:10:58.849Z,55.60
2019-02-22T13:12:13.694Z,55.60
2019-02-22T13:13:15.295Z,55.40
2019-02-22T13:14:22.664Z,55.70
2019-02-22T13:15:29.990Z,55.50
2019-02-22T13:16:37.350Z,55.40
2019-02-22T13:17:44.649Z,55.10
2019-02-22T13:18:51.993Z,55.10
2019-02-22T13:19:59.390Z,55.20
2019-02-22T13:21:06.857Z,54.50
2019-02-22T13:22:14.191Z,54.10
2019-02-22T13:23:21.528Z,54.30
2019-02-22T13:24:28.931Z,54.60
2019-02-22T13:25:36.362Z,54.50
2019-02-22T13:26:43.863Z,54.10
2019-02-22T13:27:52.483Z,54.10
2019-02-22T13:29:01.058Z,54.10
2019-02-22T13:30:09.824Z,54.10
2019-02-22T13:31:17.140Z,54.40
2019-02-22T13:32:24.503Z,54.30
2019-02-22T13:33:31.819Z,54.20
2019-02-22T13:34:41.718Z,54.10
2019-02-22T13:35:51.283Z,54.20
2019-02-22T13:36:58.645Z,54.20
2019-02-22T13:38:06.032Z,54.10
2019-02-22T13:39:16.129Z,53.70
2019-02-22T13:40:24.835Z,54.80
2019-02-22T13:41:32.336Z,54.30
2019-02-22T13:42:39.682Z,54.20
2019-02-22T13:43:47.101Z,54.20
2019-02-22T13:44:54.495Z,53.90
2019-02-22T13:46:01.807Z,53.70
2019-02-22T13:47:09.124Z,53.50
2019-02-22T13:48:16.481Z,53.40
2019-02-22T13:49:23.783Z,53.50
2019-02-22T13:50:31.206Z,53.60
2019-02-22T13:51:38.522Z,53.60
2019-02-22T13:52:45.826Z,53.60
2019-02-22T13:53:53.162Z,53.70
2019-02-22T13:55:04.350Z,53.90
2019-02-22T13:56:11.943Z,54.00
2019-02-22T13:57:22.018Z,54.00
2019-02-22T13:58:29.358Z,54.00
2019-02-22T13:59:36.694Z,54.00
2019-02-22T14:00:44.005Z,54.00
2019-02-22T14:01:51.361Z,53.60
2019-02-22T14:03:17.747Z,53.20
2019-02-22T14:04:25.078Z,53.30
2019-02-22T14:05:32.419Z,53.80
2019-02-22T14:06:39.752Z,53.30
2019-02-22T14:07:57.208Z,53.60
2019-02-22T14:09:05.559Z,53.50
2019-02-22T14:10:14.662Z,53.80
2019-02-22T14:11:22.051Z,53.90
2019-02-22T14:12:29.396Z,54.00
2019-02-22T14:13:36.716Z,53.90
2019-02-22T14:14:44.041Z,53.80
2019-02-22T14:15:51.455Z,53.80
2019-02-22T14:17:01.094Z,53.80
2019-02-22T14:18:08.499Z,53.80
2019-02-22T14:19:15.911Z,53.90
2019-02-22T14:20:23.265Z,53.80
2019-02-22T14:21:30.608Z,53.80
2019-02-22T14:22:38.000Z,53.80
2019-02-22T14:23:45.339Z,53.80
2019-02-22T14:24:52.646Z,53.80
2019-02-22T14:25:59.991Z,53.80
2019-02-22T14:27:07.313Z,53.80
2019-02-22T14:28:17.743Z,53.80
2019-02-22T14:29:25.049Z,53.80
2019-02-22T14:30:32.373Z,54.30
2019-02-22T14:31:39.738Z,54.30
2019-02-22T14:32:47.178Z,54.40